createdAt,value
2022-11-10T00:02:08.832Z,10.20
2022-11-10T00:04:36.512Z,10.30
2022-11-10T00:07:04.251Z,10.20
2022-11-10T00:09:32.266Z,10.10
2022-11-10T00:12:01.270Z,10.00
2022-11-10T00:14:46.350Z,10.10
2022-11-10T00:17:14.037Z,10.10
2022-11-10T00:19:41.747Z,10.10
2022-11-10T00:22:09.432Z,9.90
2022-11-10T00:24:37.091Z,9.90
2022-11-10T00:27:06.186Z,9.90
2022-11-10T00:29:34.003Z,9.90
2022-11-10T00:32:01.779Z,9.90
2022-11-10T00:34:29.480Z,9.90
2022-11-10T00:36:57.374Z,9.90
2022-11-10T00:39:25.076Z,9.90
2022-11-10T00:41:52.834Z,9.90
2022-11-10T00:44:21.877Z,9.90
2022-11-10T00:46:49.550Z,9.90
2022-11-10T00:49:17.218Z,10.00
2022-11-10T00:51:44.967Z,10.00
2022-11-10T00:54:12.658Z,10.00
2022-11-10T00:56:40.334Z,9.90
2022-11-10T00:59:08.193Z,10.00
2022-11-10T01:01:37.359Z,9.90
2022-11-10T01:04:05.428Z,10.00
2022-11-10T01:06:33.328Z,10.00
2022-11-10T01:09:01.026Z,9.90
2022-11-10T01:11:29.148Z,9.90
2022-11-10T01:13:57.830Z,9.80
2022-11-10T01:16:26.298Z,9.80
2022-11-10T01:18:56.297Z,9.80
2022-11-10T01:21:24.897Z,9.80
2022-11-10T01:23:52.989Z,9.80
2022-11-10T01:26:21.169Z,9.80
2022-11-10T01:28:49.167Z,9.80
2022-11-10T01:31:17.793Z,9.80
2022-11-10T01:33:45.575Z,9.80
2022-11-10T01:36:14.898Z,9.80
2022-11-10T01:38:43.193Z,9.80
2022-11-10T01:41:11.899Z,9.80
2022-11-10T01:43:39.840Z,9.70
2022-11-10T01:46:08.032Z,9.80
2022-11-10T01:48:37.561Z,9.70
2022-11-10T01:51:07.436Z,9.70
2022-11-10T01:53:37.790Z,9.70
2022-11-10T01:56:05.724Z,9.70
2022-11-10T01:58:34.382Z,9.70
2022-11-10T02:01:02.131Z,9.70
2022-11-10T02:03:32.903Z,9.60
2022-11-10T02:06:01.009Z,9.50
2022-11-10T02:08:28.930Z,9.50
2022-11-10T02:10:57.947Z,9.50
2022-11-10T02:13:26.006Z,9.50
2022-11-10T02:15:53.893Z,9.50
2022-11-10T02:18:21.546Z,9.60
2022-11-10T02:20:50.706Z,9.50
2022-11-10T02:23:33.494Z,9.50
2022-11-10T02:26:02.025Z,9.60
2022-11-10T02:28:29.891Z,9.50
2022-11-10T02:30:57.587Z,9.50
2022-11-10T02:33:25.300Z,9.50
2022-11-10T02:35:54.442Z,9.60
2022-11-10T02:38:22.122Z,9.60
2022-11-10T02:40:49.898Z,9.60
2022-11-10T02:43:18.202Z,9.60
2022-11-10T02:45:45.888Z,9.60
2022-11-10T02:48:14.540Z,9.50
2022-11-10T02:50:42.290Z,9.50
2022-11-10T02:53:11.603Z,9.50
2022-11-10T02:55:39.308Z,9.50
2022-11-10T02:58:06.973Z,9.50
2022-11-10T03:00:34.656Z,9.50
2022-11-10T03:03:03.150Z,9.50
2022-11-10T03:05:30.891Z,9.50
2022-11-10T03:07:59.128Z,9.50
2022-11-10T03:10:28.647Z,9.50
2022-11-10T03:12:56.402Z,9.50
2022-11-10T03:15:24.758Z,9.50
2022-11-10T03:17:52.437Z,9.50
2022-11-10T03:20:20.318Z,9.50
2022-11-10T03:22:48.165Z,9.50
2022-11-10T03:25:16.142Z,9.50
2022-11-10T03:27:45.794Z,9.50
2022-11-10T03:30:13.710Z,9.50
2022-11-10T03:32:41.830Z,9.40
2022-11-10T03:35:09.749Z,9.40
2022-11-10T03:37:37.541Z,9.40
2022-11-10T03:40:05.454Z,9.40
2022-11-10T03:42:33.151Z,9.40
2022-11-10T03:45:02.173Z,9.40
2022-11-10T03:47:29.885Z,9.40
2022-11-10T03:49:57.552Z,9.40
2022-11-10T03:52:25.277Z,9.40
2022-11-10T03:54:53.061Z,9.30
2022-11-10T03:57:20.722Z,9.30
2022-11-10T03:59:48.401Z,9.20
2022-11-10T04:02:17.463Z,9.20
2022-11-10T04:05:02.416Z,9.10
2022-11-10T04:07:48.122Z,9.10
2022-11-10T04:10:15.877Z,9.10
2022-11-10T04:13:01.137Z,9.20
2022-11-10T04:15:43.758Z,9.00
2022-11-10T04:18:24.574Z,9.10
2022-11-10T04:20:52.967Z,9.00
2022-11-10T04:23:31.021Z,9.10
2022-11-10T04:26:17.932Z,9.00
2022-11-10T04:28:46.297Z,9.00
2022-11-10T04:31:14.360Z,8.90
2022-11-10T04:33:43.880Z,8.90
2022-11-10T04:36:12.876Z,8.80
2022-11-10T04:38:40.609Z,8.80
2022-11-10T04:41:08.618Z,8.80
2022-11-10T04:43:36.348Z,8.70
2022-11-10T04:46:04.458Z,8.70
2022-11-10T04:48:32.830Z,8.70
2022-11-10T04:51:06.003Z,8.70
2022-11-10T04:53:33.841Z,8.70
2022-11-10T04:56:01.565Z,8.70
2022-11-10T04:58:29.368Z,8.70
2022-11-10T05:00:57.114Z,8.70
2022-11-10T05:03:26.470Z,8.70
2022-11-10T05:05:54.194Z,8.70
2022-11-10T05:08:23.228Z,8.70
2022-11-10T05:10:50.910Z,8.70
2022-11-10T05:13:18.768Z,8.70
2022-11-10T05:15:46.639Z,8.80
2022-11-10T05:18:14.317Z,8.90
2022-11-10T05:20:42.001Z,9.00
2022-11-10T05:23:27.071Z,9.00
2022-11-10T05:25:56.113Z,9.00
2022-11-10T05:28:23.793Z,9.00
2022-11-10T05:30:51.498Z,8.90
2022-11-10T05:33:19.790Z,8.80
2022-11-10T05:35:49.713Z,8.70
2022-11-10T05:38:17.660Z,8.70
2022-11-10T05:40:45.555Z,8.60
2022-11-10T05:43:14.571Z,8.60
2022-11-10T05:45:42.270Z,8.50
2022-11-10T05:48:09.970Z,8.50
2022-11-10T05:50:37.650Z,8.50
2022-11-10T05:53:05.303Z,8.50
2022-11-10T05:55:32.995Z,8.50
2022-11-10T05:58:00.671Z,8.40
2022-11-10T06:00:30.926Z,8.40
2022-11-10T06:02:59.587Z,8.40
2022-11-10T06:05:31.047Z,8.30
2022-11-10T06:07:59.657Z,8.30
2022-11-10T06:10:27.361Z,8.30
2022-11-10T06:12:55.147Z,8.30
2022-11-10T06:15:22.861Z,8.30
2022-11-10T06:17:52.588Z,8.30
2022-11-10T06:20:21.089Z,8.20
2022-11-10T06:22:59.610Z,8.20
2022-11-10T06:25:27.775Z,8.20
2022-11-10T06:27:55.467Z,8.20
2022-11-10T06:30:23.586Z,8.10
2022-11-10T06:32:52.602Z,8.10
2022-11-10T06:35:20.592Z,8.10
2022-11-10T06:37:57.671Z,8.10
2022-11-10T06:40:25.377Z,8.00
2022-11-10T06:42:53.136Z,8.00
2022-11-10T06:45:21.080Z,8.00
2022-11-10T06:47:48.841Z,7.90
2022-11-10T06:50:17.851Z,7.90
2022-11-10T06:52:45.528Z,8.00
2022-11-10T06:55:13.261Z,7.90
2022-11-10T06:57:41.199Z,7.90
2022-11-10T07:00:10.410Z,7.90
2022-11-10T07:02:38.474Z,7.90
2022-11-10T07:05:06.569Z,7.80
2022-11-10T07:07:35.706Z,7.80
2022-11-10T07:10:07.003Z,7.70
2022-11-10T07:12:35.561Z,7.80
2022-11-10T07:15:03.273Z,7.70
2022-11-10T07:17:30.949Z,7.80
2022-11-10T07:19:58.647Z,7.80
2022-11-10T07:22:26.318Z,8.00
2022-11-10T07:24:55.325Z,8.00
2022-11-10T07:27:23.118Z,8.10
2022-11-10T07:29:50.835Z,8.20
2022-11-10T07:32:18.493Z,8.30
2022-11-10T07:34:46.191Z,8.50
2022-11-10T07:37:13.854Z,8.70
2022-11-10T07:39:41.518Z,8.80
2022-11-10T07:42:10.537Z,9.00
2022-11-10T07:44:38.310Z,9.20
2022-11-10T07:47:06.042Z,9.40
2022-11-10T07:49:33.895Z,9.60
2022-11-10T07:52:01.566Z,9.80
2022-11-10T07:54:29.250Z,9.90
2022-11-10T07:56:57.108Z,10.00
2022-11-10T07:59:26.132Z,10.30
2022-11-10T08:01:53.854Z,10.50
2022-11-10T08:04:21.572Z,10.70
2022-11-10T08:06:49.368Z,10.90
2022-11-10T08:09:17.109Z,11.00
2022-11-10T08:11:44.813Z,11.10
2022-11-10T08:14:12.534Z,10.80
2022-11-10T08:16:41.537Z,10.70
2022-11-10T08:19:09.285Z,10.70
2022-11-10T08:21:36.937Z,10.90
2022-11-10T08:24:04.797Z,11.00
2022-11-10T08:26:32.965Z,11.20
2022-11-10T08:29:00.622Z,11.20
2022-11-10T08:31:28.317Z,11.50
2022-11-10T08:33:57.366Z,11.60
2022-11-10T08:36:25.072Z,11.70
2022-11-10T08:38:52.742Z,11.70
2022-11-10T08:41:20.429Z,11.80
2022-11-10T08:43:48.581Z,12.00
2022-11-10T08:46:16.436Z,12.30
2022-11-10T08:48:44.219Z,12.50
2022-11-10T08:51:13.297Z,12.70
2022-11-10T08:53:40.993Z,12.70
2022-11-10T08:56:09.072Z,12.70
2022-11-10T08:58:47.289Z,12.80
2022-11-10T09:01:18.019Z,12.80
2022-11-10T09:03:45.682Z,12.90
2022-11-10T09:06:14.699Z,12.90
2022-11-10T09:08:42.391Z,13.10
2022-11-10T09:11:10.070Z,13.10
2022-11-10T09:13:37.741Z,13.20
2022-11-10T09:16:06.229Z,13.30
2022-11-10T09:18:34.179Z,13.50
2022-11-10T09:21:03.091Z,13.70
2022-11-10T09:23:32.123Z,13.90
2022-11-10T09:25:59.798Z,14.00
2022-11-10T09:28:27.483Z,14.20
2022-11-10T09:30:55.161Z,14.30
2022-11-10T09:33:23.108Z,14.40
2022-11-10T09:35:51.477Z,14.20
2022-11-10T09:38:19.397Z,14.30
2022-11-10T09:40:54.619Z,14.50
2022-11-10T09:43:24.653Z,14.50
2022-11-10T09:45:54.653Z,14.60
2022-11-10T09:48:25.282Z,14.70
2022-11-10T09:50:55.104Z,14.70
2022-11-10T09:53:24.190Z,14.80
2022-11-10T09:55:55.981Z,14.80
2022-11-10T09:58:24.981Z,14.80
2022-11-10T10:01:00.731Z,14.80
2022-11-10T10:03:30.915Z,14.50
2022-11-10T10:06:02.447Z,14.50
2022-11-10T10:08:35.484Z,14.80
2022-11-10T10:11:11.033Z,14.90
2022-11-10T10:13:49.393Z,15.20
2022-11-10T10:16:20.134Z,15.20
2022-11-10T10:18:53.074Z,15.20
2022-11-10T10:21:25.491Z,15.00
2022-11-10T10:24:09.422Z,15.20
2022-11-10T10:26:46.060Z,15.30
2022-11-10T10:29:17.308Z,15.40
2022-11-10T10:31:51.187Z,15.30
2022-11-10T10:34:20.484Z,15.20
2022-11-10T10:36:48.191Z,14.90
2022-11-10T10:39:17.388Z,14.50
2022-11-10T10:41:46.978Z,14.60
2022-11-10T10:44:15.495Z,14.90
2022-11-10T10:46:44.165Z,15.10
2022-11-10T10:49:28.976Z,15.40
2022-11-10T10:52:03.556Z,15.30
2022-11-10T10:54:32.367Z,15.10
2022-11-10T10:57:05.572Z,14.70
2022-11-10T10:59:33.464Z,14.30
2022-11-10T11:02:01.123Z,14.10
2022-11-10T11:04:30.511Z,13.90
2022-11-10T11:06:59.132Z,13.90
2022-11-10T11:09:27.417Z,13.80
2022-11-10T11:12:02.789Z,13.70
2022-11-10T11:14:32.599Z,13.80
2022-11-10T11:17:01.695Z,14.00
2022-11-10T11:19:31.682Z,14.10
2022-11-10T11:22:27.489Z,14.10
2022-11-10T11:24:58.445Z,14.10
2022-11-10T11:27:30.492Z,13.90
2022-11-10T11:30:03.948Z,13.80
2022-11-10T11:32:37.538Z,13.60
2022-11-10T11:35:13.194Z,13.50
2022-11-10T11:37:44.688Z,13.80
2022-11-10T11:40:19.391Z,14.40
2022-11-10T11:42:54.515Z,14.60
2022-11-10T11:45:27.617Z,14.90
2022-11-10T11:48:01.437Z,15.00
2022-11-10T11:50:30.953Z,15.30
2022-11-10T11:53:15.430Z,15.80
2022-11-10T11:55:48.692Z,15.80
2022-11-10T11:58:27.823Z,16.10
2022-11-10T12:01:02.184Z,16.00
2022-11-10T12:03:39.909Z,16.20
2022-11-10T12:06:24.006Z,16.60
2022-11-10T12:08:55.563Z,16.80
2022-11-10T12:11:29.025Z,17.10
2022-11-10T12:13:59.758Z,17.60
2022-11-10T12:16:30.255Z,17.70
2022-11-10T12:19:05.211Z,17.90
2022-11-10T12:21:37.291Z,17.80
2022-11-10T12:24:16.817Z,18.00
2022-11-10T12:26:50.185Z,18.20
2022-11-10T12:29:22.844Z,18.00
2022-11-10T12:31:54.618Z,17.70
2022-11-10T12:34:26.372Z,17.60
2022-11-10T12:36:54.186Z,17.40
2022-11-10T12:39:24.005Z,17.10
2022-11-10T12:41:54.485Z,16.60
2022-11-10T12:44:27.137Z,16.20
2022-11-10T12:46:57.016Z,15.90
2022-11-10T12:49:29.024Z,15.80
2022-11-10T12:52:00.682Z,15.40
2022-11-10T12:54:29.111Z,15.20
2022-11-10T12:56:58.910Z,15.00
2022-11-10T12:59:31.015Z,14.90
2022-11-10T13:02:02.835Z,14.80
2022-11-10T13:04:32.661Z,14.70
2022-11-10T13:07:01.376Z,14.70
2022-11-10T13:09:30.053Z,14.60
2022-11-10T13:12:05.306Z,14.60
2022-11-10T13:14:33.021Z,14.50
2022-11-10T13:17:02.127Z,14.40
2022-11-10T13:19:49.195Z,14.30
2022-11-10T13:22:36.763Z,14.30
2022-11-10T13:25:23.399Z,14.30
2022-11-10T13:27:52.507Z,14.20
2022-11-10T13:30:35.122Z,14.20
2022-11-10T13:33:17.685Z,14.10
2022-11-10T13:35:54.923Z,14.20
2022-11-10T13:38:35.188Z,14.20
2022-11-10T13:41:22.197Z,14.10
2022-11-10T13:43:50.935Z,14.00
2022-11-10T13:46:18.842Z,13.90
2022-11-10T13:49:15.608Z,13.90
2022-11-10T13:51:46.686Z,14.00
2022-11-10T13:54:26.769Z,13.90
2022-11-10T13:57:05.148Z,13.90
2022-11-10T13:59:34.098Z,13.90
2022-11-10T14:02:16.665Z,13.80
2022-11-10T14:04:46.642Z,13.80
2022-11-10T14:07:17.020Z,13.80
2022-11-10T14:09:46.688Z,13.80
2022-11-10T14:12:19.287Z,13.80
2022-11-10T14:14:50.249Z,13.80
2022-11-10T14:17:20.915Z,13.70
2022-11-10T14:19:48.613Z,13.70
2022-11-10T14:22:22.271Z,13.70
2022-11-10T14:24:53.697Z,13.60
2022-11-10T14:27:23.124Z,13.60
2022-11-10T14:29:50.834Z,13.60
2022-11-10T14:32:19.862Z,13.60
2022-11-10T14:34:49.161Z,13.60
2022-11-10T14:37:22.756Z,13.60
2022-11-10T14:39:52.606Z,13.50
2022-11-10T14:42:22.522Z,13.50
2022-11-10T14:44:50.209Z,13.50
2022-11-10T14:47:25.019Z,13.50
2022-11-10T14:50:05.964Z,13.40
2022-11-10T14:52:38.283Z,13.40
2022-11-10T14:55:08.033Z,13.40
2022-11-10T14:57:35.745Z,13.30
2022-11-10T15:00:06.569Z,13.30
2022-11-10T15:02:34.312Z,13.20
2022-11-10T15:05:03.826Z,13.20
2022-11-10T15:07:31.756Z,13.10
2022-11-10T15:10:05.994Z,13.00
2022-11-10T15:12:38.092Z,13.00
2022-11-10T15:15:21.692Z,12.90
2022-11-10T15:17:50.344Z,12.80
2022-11-10T15:20:28.448Z,12.80
2022-11-10T15:22:58.144Z,12.70
2022-11-10T15:25:32.748Z,12.70
2022-11-10T15:28:01.858Z,12.70
2022-11-10T15:30:29.784Z,12.60
2022-11-10T15:33:02.076Z,12.60
2022-11-10T15:35:31.482Z,12.60
2022-11-10T15:37:59.915Z,12.50
2022-11-10T15:40:33.550Z,12.40
2022-11-10T15:43:17.060Z,12.30
2022-11-10T15:45:45.381Z,12.30
2022-11-10T15:48:13.799Z,12.20
2022-11-10T15:50:42.064Z,12.10
2022-11-10T15:53:13.160Z,12.10
2022-11-10T15:55:42.649Z,12.00
2022-11-10T15:58:14.757Z,11.90
2022-11-10T16:00:42.433Z,11.90
2022-11-10T16:03:11.302Z,11.80
2022-11-10T16:05:41.187Z,11.70
2022-11-10T16:08:13.493Z,11.70
2022-11-10T16:10:42.651Z,11.70
2022-11-10T16:13:11.400Z,11.60
2022-11-10T16:15:39.621Z,11.60
2022-11-10T16:18:11.022Z,11.50
2022-11-10T16:20:38.677Z,11.40
2022-11-10T16:23:06.372Z,11.40
2022-11-10T16:25:34.384Z,11.30
2022-11-10T16:28:05.402Z,11.20
2022-11-10T16:30:33.240Z,11.20
2022-11-10T16:33:01.165Z,11.10
2022-11-10T16:35:28.948Z,11.10
2022-11-10T16:37:56.701Z,11.00
2022-11-10T16:40:24.933Z,11.00
2022-11-10T16:42:52.612Z,10.90
2022-11-10T16:45:23.729Z,10.90
2022-11-10T16:47:53.169Z,10.80
2022-11-10T16:50:31.882Z,10.80
2022-11-10T16:52:59.914Z,10.80
2022-11-10T16:55:27.604Z,10.70
2022-11-10T16:57:55.456Z,10.60
2022-11-10T17:00:24.650Z,10.60
2022-11-10T17:02:57.954Z,10.50
2022-11-10T17:05:25.661Z,10.60
2022-11-10T17:07:53.457Z,10.60
2022-11-10T17:10:21.695Z,10.60
2022-11-10T17:12:49.630Z,10.50
2022-11-10T17:15:17.504Z,10.60
2022-11-10T17:17:47.569Z,10.50
2022-11-10T17:20:18.947Z,10.50
2022-11-10T17:22:46.853Z,10.50
2022-11-10T17:25:24.548Z,10.40
2022-11-10T17:27:52.415Z,10.40
2022-11-10T17:30:20.277Z,10.40
2022-11-10T17:33:06.040Z,10.30
2022-11-10T17:35:39.166Z,10.20
2022-11-10T17:38:10.451Z,10.20
2022-11-10T17:40:38.185Z,10.10
2022-11-10T17:43:05.852Z,10.10
2022-11-10T17:45:34.029Z,10.00
2022-11-10T17:48:03.065Z,10.00
2022-11-10T17:50:31.792Z,10.00
2022-11-10T17:53:01.732Z,10.00
2022-11-10T17:55:33.937Z,10.00
2022-11-10T17:58:02.117Z,10.00
2022-11-10T18:00:30.186Z,9.90
2022-11-10T18:02:57.874Z,9.90
2022-11-10T18:05:26.891Z,9.80
2022-11-10T18:07:55.152Z,9.80
2022-11-10T18:10:22.844Z,9.80
2022-11-10T18:12:50.639Z,9.80
2022-11-10T18:15:18.722Z,9.90
2022-11-10T18:17:46.411Z,9.80
2022-11-10T18:20:14.691Z,9.80
2022-11-10T18:22:43.747Z,9.80
2022-11-10T18:25:11.529Z,9.80
2022-11-10T18:27:39.302Z,9.80
2022-11-10T18:30:07.633Z,9.80
2022-11-10T18:32:35.379Z,9.70
2022-11-10T18:35:03.096Z,9.70
2022-11-10T18:37:30.770Z,9.70
2022-11-10T18:39:59.827Z,9.60
2022-11-10T18:42:28.774Z,9.60
2022-11-10T18:44:56.484Z,9.60
2022-11-10T18:47:24.170Z,9.60
2022-11-10T18:49:51.867Z,9.60
2022-11-10T18:52:19.617Z,9.60
2022-11-10T18:54:47.314Z,9.60
2022-11-10T18:57:16.677Z,9.50
2022-11-10T18:59:44.841Z,9.50
2022-11-10T19:02:13.109Z,9.50
2022-11-10T19:04:41.236Z,9.50
2022-11-10T19:07:09.175Z,9.50
2022-11-10T19:09:36.954Z,9.40
2022-11-10T19:12:04.887Z,9.30
2022-11-10T19:14:33.726Z,9.30
2022-11-10T19:17:02.937Z,9.30
2022-11-10T19:19:30.727Z,9.30
2022-11-10T19:21:58.689Z,9.30
2022-11-10T19:24:28.360Z,9.20
2022-11-10T19:26:57.872Z,9.20
2022-11-10T19:29:25.563Z,9.20
2022-11-10T19:31:53.248Z,9.20
2022-11-10T19:34:22.286Z,9.10
2022-11-10T19:36:50.055Z,9.20
2022-11-10T19:39:17.748Z,9.10
2022-11-10T19:41:45.447Z,9.10
2022-11-10T19:44:13.113Z,9.10
2022-11-10T19:46:40.786Z,9.00
2022-11-10T19:49:08.590Z,9.00
2022-11-10T19:51:37.590Z,9.00
2022-11-10T19:54:05.897Z,9.00
2022-11-10T19:56:35.534Z,9.00
2022-11-10T19:59:03.197Z,8.90
2022-11-10T20:01:32.426Z,8.90
2022-11-10T20:04:00.549Z,8.80
2022-11-10T20:06:28.248Z,8.90
2022-11-10T20:08:57.240Z,8.80
2022-11-10T20:11:26.244Z,8.80
2022-11-10T20:13:55.363Z,8.80
2022-11-10T20:16:23.319Z,8.80
2022-11-10T20:18:51.048Z,8.80
2022-11-10T20:21:22.637Z,8.80
2022-11-10T20:23:53.647Z,8.70
2022-11-10T20:26:23.310Z,8.70
2022-11-10T20:28:51.333Z,8.70
2022-11-10T20:31:20.566Z,8.60
2022-11-10T20:33:48.722Z,8.50
2022-11-10T20:36:20.433Z,8.60
2022-11-10T20:38:48.920Z,8.60
2022-11-10T20:41:17.375Z,8.50
2022-11-10T20:43:46.422Z,8.50
2022-11-10T20:46:33.233Z,8.50
2022-11-10T20:49:03.246Z,8.50
2022-11-10T20:51:30.980Z,8.40
2022-11-10T20:54:00.271Z,8.40
2022-11-10T20:56:29.932Z,8.50
2022-11-10T20:58:59.300Z,8.50
2022-11-10T21:01:27.322Z,8.40
2022-11-10T21:03:55.285Z,8.40
2022-11-10T21:06:22.976Z,8.40
2022-11-10T21:08:50.869Z,8.40
2022-11-10T21:11:38.732Z,8.40
2022-11-10T21:14:07.042Z,8.40
2022-11-10T21:16:34.821Z,8.40
2022-11-10T21:19:02.655Z,8.40
2022-11-10T21:21:34.404Z,8.40
2022-11-10T21:24:02.474Z,8.40
2022-11-10T21:26:30.602Z,8.40
2022-11-10T21:28:58.632Z,8.40
2022-11-10T21:31:27.696Z,8.40
2022-11-10T21:33:55.586Z,8.30
2022-11-10T21:36:23.533Z,8.30
2022-11-10T21:38:51.224Z,8.30
2022-11-10T21:41:18.888Z,8.40
2022-11-10T21:43:46.565Z,8.40
2022-11-10T21:46:14.364Z,8.30
2022-11-10T21:48:43.383Z,8.30
2022-11-10T21:51:12.377Z,8.30
2022-11-10T21:53:41.896Z,8.20
2022-11-10T21:56:10.593Z,8.20
2022-11-10T21:58:38.580Z,8.30
2022-11-10T22:01:07.386Z,8.60
2022-11-10T22:03:35.496Z,8.70
2022-11-10T22:06:05.428Z,8.80
2022-11-10T22:08:33.389Z,8.70
2022-11-10T22:11:19.157Z,8.70
2022-11-10T22:14:04.677Z,8.90
2022-11-10T22:16:51.950Z,9.00
2022-11-10T22:19:19.685Z,9.00
2022-11-10T22:21:48.808Z,8.90
2022-11-10T22:24:26.724Z,8.70
2022-11-10T22:26:56.043Z,8.70
2022-11-10T22:29:28.581Z,8.70
2022-11-10T22:31:58.864Z,8.60
2022-11-10T22:34:26.556Z,8.60
2022-11-10T22:36:55.695Z,8.60
2022-11-10T22:39:43.631Z,8.60
2022-11-10T22:42:29.549Z,8.70
2022-11-10T22:44:57.221Z,8.70
2022-11-10T22:47:24.859Z,8.90
2022-11-10T22:49:52.546Z,8.90
2022-11-10T22:52:21.739Z,9.00
2022-11-10T22:54:49.383Z,9.10
2022-11-10T22:57:17.041Z,9.20
2022-11-10T22:59:44.865Z,9.10
2022-11-10T23:02:12.536Z,9.10
2022-11-10T23:04:40.210Z,9.20
2022-11-10T23:07:08.014Z,9.20
2022-11-10T23:09:37.017Z,9.30
2022-11-10T23:12:04.983Z,9.30
2022-11-10T23:14:32.650Z,9.30
2022-11-10T23:17:00.311Z,9.30
2022-11-10T23:19:27.972Z,9.30
2022-11-10T23:21:55.646Z,9.40
2022-11-10T23:24:25.031Z,9.30
2022-11-10T23:26:54.012Z,9.40
2022-11-10T23:29:21.693Z,9.40
2022-11-10T23:31:49.364Z,9.30
2022-11-10T23:34:17.024Z,9.30
2022-11-10T23:36:54.202Z,9.30
2022-11-10T23:39:21.857Z,9.30
2022-11-10T23:41:49.511Z,9.20
2022-11-10T23:44:18.526Z,9.20
2022-11-10T23:46:46.166Z,9.10
2022-11-10T23:49:13.841Z,9.10
2022-11-10T23:51:41.725Z,9.20
2022-11-10T23:54:09.365Z,9.10
2022-11-10T23:56:37.041Z,9.10
2022-11-10T23:59:04.955Z,9.00
